Terminal Aerodrome Forecast
Issued by NWS Sterling, VA

Current Version | Previous Version | Graphics & Text | Print | Product List | Glossary On
Versions: 1 2 3 4 5 6 7 8 9 10 11 12 13 14 15 16 17
000
FTUS41 KLWX 020536
TAFMRB
TAF
KMRB 020536Z 0206/0306 29004KT P6SM SCT007 BKN035
     FM021200 30008KT P6SM BKN060
     FM021500 31013G22KT P6SM SCT200
     FM022300 31008KT P6SM BKN200=

USA.gov is the U.S. government's official web portal to all federal, state and local government web resources and services.